Time;durP1;ratioP1;P1;durP2;ratioP2;P2;SDS_P1;SDS_P2;PMS_P1;PMS_P2;Temp;Humidity;BMP_temperature;BMP_pressure;BME280_temperature;BME280_humidity;BME280_pressure;Samples;Min_cycle;Max_cycle;Signal;HPM_P1;HPM_P2
2021/07/31 00:00:18;;;;;;;;;;;;;;;23.57;65.55;100108.29;457425;114;923130;-72
2021/07/31 00:01:22;;;;;;;;;;;;;;;23.53;65.59;100108.10;460618;114;922702;-71
2021/07/31 00:02:26;;;;;;;;;;;;;;;23.50;65.68;100111.49;458341;114;921486;-71
2021/07/31 00:03:29;;;;;;;;;;;;;;;23.46;65.82;100102.13;455209;116;921894;-71
2021/07/31 00:04:32;;;;;;;;;;;;;;;23.45;65.87;100105.19;457190;114;921799;-71
2021/07/31 00:05:36;;;;;;;;;;;;;;;23.44;65.96;100117.44;458678;114;921433;-72
2021/07/31 00:06:39;;;;;;;;;;;;;;;23.43;66.02;100111.05;459249;114;921396;-71
2021/07/31 00:07:42;;;;;;;;;;;;;;;23.43;66.10;100113.04;457689;116;921945;-71
2021/07/31 00:08:46;;;;;;;;;;;;;;;23.41;66.14;100107.77;458857;114;921406;-71
2021/07/31 00:09:49;;;;;;;;;;;;;;;23.42;66.20;100101.08;458716;114;921535;-71
2021/07/31 00:10:52;;;;;;;;;;;;;;;23.42;66.17;100103.04;459856;114;921509;-71
2021/07/31 00:11:56;;;;;;;;;;;;;;;23.39;66.24;100101.69;459153;114;921464;-71
2021/07/31 00:12:59;;;;;;;;;;;;;;;23.38;66.33;100107.55;459310;115;921481;-72
2021/07/31 00:14:02;;;;;;;;;;;;;;;23.37;66.39;100105.94;459487;114;921433;-72
2021/07/31 00:15:06;;;;;;;;;;;;;;;23.35;66.41;100100.67;460436;114;921917;-71
2021/07/31 00:16:09;;;;;;;;;;;;;;;23.34;66.47;100103.75;459914;114;921511;-71
2021/07/31 00:17:12;;;;;;;;;;;;;;;23.33;66.51;100097.36;459106;116;921442;-72
2021/07/31 00:18:16;;;;;;;;;;;;;;;23.32;66.59;100100.48;459847;114;922685;-71
2021/07/31 00:19:19;;;;;;;;;;;;;;;23.32;66.63;100101.31;460973;114;921595;-73
2021/07/31 00:20:23;;;;;;;;;;;;;;;23.31;66.62;100101.61;457297;114;923142;-71
2021/07/31 00:21:26;;;;;;;;;;;;;;;23.29;66.63;100105.52;456333;114;923539;-71
2021/07/31 00:22:30;;;;;;;;;;;;;;;23.28;66.63;100101.08;458376;114;922739;-72
2021/07/31 00:23:34;;;;;;;;;;;;;;;23.27;66.66;100098.60;458162;114;922668;-72
2021/07/31 00:24:38;;;;;;;;;;;;;;;23.27;66.69;100096.65;457035;114;923036;-72
2021/07/31 00:25:41;;;;;;;;;;;;;;;23.27;66.70;100098.60;456315;114;923884;-72
2021/07/31 00:26:45;;;;;;;;;;;;;;;23.28;66.69;100094.69;457319;114;921492;-72
2021/07/31 00:27:48;;;;;;;;;;;;;;;23.28;66.69;100092.73;457345;114;921415;-72
2021/07/31 00:28:53;;;;;;;;;;;;;;;23.28;66.66;100089.13;458889;114;922687;-70
2021/07/31 00:29:57;;;;;;;;;;;;;;;23.29;66.64;100097.17;455424;115;922654;-71
2021/07/31 00:31:00;;;;;;;;;;;;;;;23.29;66.65;100101.91;449217;116;922596;-71
2021/07/31 00:32:03;;;;;;;;;;;;;;;23.31;66.62;100096.05;448631;118;922662;-71
2021/07/31 00:33:07;;;;;;;;;;;;;;;23.31;66.63;100099.66;447940;116;922707;-70
2021/07/31 00:34:11;;;;;;;;;;;;;;;23.32;66.56;100101.31;448413;116;922795;-71
2021/07/31 00:35:14;;;;;;;;;;;;;;;23.31;66.59;100096.88;450246;116;922655;-70
2021/07/31 00:36:18;;;;;;;;;;;;;;;23.28;66.59;100100.25;447542;117;922944;-72
2021/07/31 00:37:22;;;;;;;;;;;;;;;23.26;66.67;100099.77;455327;117;922712;-71
2021/07/31 00:38:25;;;;;;;;;;;;;;;23.25;66.70;100100.89;455629;114;923166;-71
2021/07/31 00:39:31;;;;;;;;;;;;;;;23.23;66.76;100100.37;445440;117;923137;-71
2021/07/31 00:40:35;;;;;;;;;;;;;;;23.22;66.80;100109.84;454686;116;923342;-72
2021/07/31 00:41:38;;;;;;;;;;;;;;;23.21;66.79;100108.22;452617;115;923034;-72
2021/07/31 00:42:42;;;;;;;;;;;;;;;23.20;66.88;100101.00;459316;113;922686;-71
2021/07/31 00:43:46;;;;;;;;;;;;;;;23.19;66.93;100105.73;451807;115;923850;-72
2021/07/31 00:44:50;;;;;;;;;;;;;;;23.19;66.94;100105.73;452091;116;924691;-72
2021/07/31 00:45:54;;;;;;;;;;;;;;;23.19;66.89;100099.34;456851;113;922890;-72
2021/07/31 00:46:58;;;;;;;;;;;;;;;23.18;66.94;100114.38;457721;113;922663;-71
2021/07/31 00:48:03;;;;;;;;;;;;;;;23.17;66.94;100105.21;456934;113;923082;-71
2021/07/31 00:49:07;;;;;;;;;;;;;;;23.18;66.96;100104.09;456706;115;921797;-71
2021/07/31 00:50:11;;;;;;;;;;;;;;;23.18;66.95;100106.87;457247;113;922666;-71
2021/07/31 00:51:16;;;;;;;;;;;;;;;23.18;66.96;100100.48;450302;116;921510;-71
2021/07/31 00:52:19;;;;;;;;;;;;;;;23.18;66.94;100097.70;443045;117;921575;-71
2021/07/31 00:53:23;;;;;;;;;;;;;;;23.16;66.92;100095.22;451604;115;921601;-71
2021/07/31 00:54:27;;;;;;;;;;;;;;;23.15;66.98;100101.11;459378;114;921418;-72
2021/07/31 00:55:31;;;;;;;;;;;;;;;23.15;67.01;100095.55;449924;116;921774;-71
2021/07/31 00:56:35;;;;;;;;;;;;;;;23.14;67.05;100099.45;449935;115;921557;-72
2021/07/31 00:57:40;;;;;;;;;;;;;;;23.14;67.07;100099.45;449871;115;921466;-72
2021/07/31 00:58:55;;;;;;;;;;;;;;;23.13;67.07;100093.06;436339;115;921772;-72
2021/07/31 00:59:59;;;;;;;;;;;;;;;23.15;67.09;100098.33;440647;118;921648;-71
2021/07/31 01:01:03;;;;;;;;;;;;;;;23.15;67.07;100096.38;441227;117;921383;-72
2021/07/31 01:02:07;;;;;;;;;;;;;;;23.16;67.07;100097.17;447078;117;921470;-72
2021/07/31 01:03:10;;;;;;;;;;;;;;;23.17;67.10;100096.05;451439;116;921501;-73
2021/07/31 01:04:14;;;;;;;;;;;;;;;23.17;67.06;100099.66;452925;115;921700;-71
2021/07/31 01:05:17;;;;;;;;;;;;;;;23.18;67.02;100100.48;453260;115;921594;-72
2021/07/31 01:06:21;;;;;;;;;;;;;;;23.16;67.02;100105.52;452777;117;921494;-71
2021/07/31 01:07:24;;;;;;;;;;;;;;;23.15;67.00;100098.33;452791;115;921462;-72
2021/07/31 01:08:28;;;;;;;;;;;;;;;23.15;67.00;100095.55;453438;115;921450;-72
2021/07/31 01:09:31;;;;;;;;;;;;;;;23.12;67.03;100098.93;446372;117;922009;-72
2021/07/31 01:10:35;;;;;;;;;;;;;;;23.10;67.09;100095.66;447260;117;921521;-72
2021/07/31 01:11:39;;;;;;;;;;;;;;;23.08;67.16;100100.69;453347;115;921625;-72
2021/07/31 01:12:43;;;;;;;;;;;;;;;23.05;67.24;100102.12;452545;116;922698;-71
2021/07/31 01:13:47;;;;;;;;;;;;;;;23.04;67.30;100100.50;454116;115;921869;-71
2021/07/31 01:14:50;;;;;;;;;;;;;;;23.04;67.38;100102.45;457673;113;921446;-71
2021/07/31 01:16:05;;;;;;;;;;;;;;;23.04;67.35;100102.45;447467;117;921522;-71
2021/07/31 01:17:12;;;;;;;;;;;;;;;23.03;67.37;100096.06;447558;116;922601;-70
2021/07/31 01:18:15;;;;;;;;;;;;;;;23.05;67.36;100101.30;446286;117;922820;-70
2021/07/31 01:19:19;;;;;;;;;;;;;;;23.04;67.36;100094.94;453610;115;923158;-71
2021/07/31 01:20:23;;;;;;;;;;;;;;;23.04;67.40;100096.89;453266;116;922721;-71
2021/07/31 01:21:36;;;;;;;;;;;;;;;23.03;67.43;100095.23;453546;116;922661;-72
2021/07/31 01:22:41;;;;;;;;;;;;;;;23.03;67.43;100098.02;450253;115;922749;-72
2021/07/31 01:23:46;;;;;;;;;;;;;;;23.03;67.44;100103.58;451523;116;922719;-71
2021/07/31 01:24:49;;;;;;;;;;;;;;;23.03;67.44;100106.36;448590;115;922881;-71
2021/07/31 01:25:53;;;;;;;;;;;;;;;23.02;67.44;100107.48;448572;116;922692;-72
2021/07/31 01:26:58;;;;;;;;;;;;;;;22.99;67.48;100097.79;447621;116;922700;-71
2021/07/31 01:28:02;;;;;;;;;;;;;;;22.97;67.49;100100.08;448813;117;922698;-69
2021/07/31 01:29:07;;;;;;;;;;;;;;;22.95;67.53;100095.94;453910;115;921624;-71
2021/07/31 01:30:12;;;;;;;;;;;;;;;22.91;67.59;100100.48;453163;115;922942;-71
2021/07/31 01:31:15;;;;;;;;;;;;;;;22.86;67.71;100110.58;453852;115;921666;-72
2021/07/31 01:32:19;;;;;;;;;;;;;;;22.83;67.83;100102.83;454274;115;922673;-72
2021/07/31 01:33:24;;;;;;;;;;;;;;;22.82;67.94;100103.16;452294;115;923198;-71
2021/07/31 01:34:29;;;;;;;;;;;;;;;22.80;68.04;100106.24;454159;115;921572;-71
2021/07/31 01:35:34;;;;;;;;;;;;;;;22.79;68.13;100106.54;453184;115;922667;-71
2021/07/31 01:36:40;;;;;;;;;;;;;;;22.79;68.19;100100.98;453684;115;922687;-71
2021/07/31 01:37:45;;;;;;;;;;;;;;;22.78;68.24;100100.16;449565;117;922670;-71
2021/07/31 01:38:50;;;;;;;;;;;;;;;22.79;68.26;100093.47;447288;117;922667;-71
2021/07/31 01:39:55;;;;;;;;;;;;;;;22.81;68.22;100098.73;452222;114;921457;-71
2021/07/31 01:40:58;;;;;;;;;;;;;;;22.82;68.27;100094.82;458701;114;923130;-69
2021/07/31 01:42:04;;;;;;;;;;;;;;;22.84;68.25;100098.09;458338;114;921444;-72
2021/07/31 01:43:09;;;;;;;;;;;;;;;22.84;68.24;100098.92;459508;114;922646;-71
2021/07/31 01:44:13;;;;;;;;;;;;;;;22.84;68.19;100101.70;459571;114;922724;-70
2021/07/31 01:45:18;;;;;;;;;;;;;;;22.86;68.17;100098.63;468471;112;923337;-70
2021/07/31 01:46:22;;;;;;;;;;;;;;;22.85;68.16;100097.80;469043;112;921466;-70
2021/07/31 01:47:26;;;;;;;;;;;;;;;22.85;68.15;100103.36;467175;112;922566;-70
2021/07/31 01:48:31;;;;;;;;;;;;;;;22.84;68.17;100089.76;464461;112;921791;-70
2021/07/31 01:49:35;;;;;;;;;;;;;;;22.85;68.19;100100.58;460661;114;921467;-70
2021/07/31 01:50:42;;;;;;;;;;;;;;;22.85;68.20;100103.36;461920;113;921718;-70
2021/07/31 01:51:46;;;;;;;;;;;;;;;22.86;68.22;100105.02;460174;114;921439;-70
2021/07/31 01:52:49;;;;;;;;;;;;;;;22.88;68.17;100101.11;457166;117;921516;-70
2021/07/31 01:53:53;;;;;;;;;;;;;;;22.88;68.14;100104.69;457739;115;921938;-70
2021/07/31 01:54:57;;;;;;;;;;;;;;;22.88;68.14;100108.29;455237;114;921614;-70
2021/07/31 01:56:00;;;;;;;;;;;;;;;22.89;68.11;100103.56;450576;116;921733;-71
2021/07/31 01:57:04;;;;;;;;;;;;;;;22.90;68.11;100104.38;454414;115;921455;-70
2021/07/31 01:58:12;;;;;;;;;;;;;;;22.91;68.12;100108.82;447012;116;921848;-70
2021/07/31 01:59:17;;;;;;;;;;;;;;;22.91;68.11;100108.82;461260;112;921528;-70
2021/07/31 02:00:21;;;;;;;;;;;;;;;22.88;68.08;100097.17;458939;114;921498;-70
2021/07/31 02:01:26;;;;;;;;;;;;;;;22.88;68.11;100105.51;467721;112;921548;-72
2021/07/31 02:02:30;;;;;;;;;;;;;;;22.88;68.11;100107.47;467902;112;921404;-70
2021/07/31 02:03:34;;;;;;;;;;;;;;;22.87;68.10;100103.06;457016;114;921643;-70
2021/07/31 02:04:56;;;;;;;;;;;;;;;22.85;68.14;100108.92;468258;113;921569;-71
2021/07/31 02:06:03;;;;;;;;;;;;;;;22.83;68.26;100110.34;460004;114;921600;-70
2021/07/31 02:07:09;;;;;;;;;;;;;;;22.81;68.25;100115.41;468499;112;922681;-70
2021/07/31 02:08:12;;;;;;;;;;;;;;;22.79;68.32;100114.87;467206;112;922496;-70
2021/07/31 02:09:27;;;;;;;;;;;;;;;22.78;68.37;100116.83;467294;112;922622;-70
2021/07/31 02:10:31;;;;;;;;;;;;;;;22.77;68.41;100123.52;457811;114;922740;-72
2021/07/31 02:11:35;;;;;;;;;;;;;;;22.76;68.42;100113.55;463049;113;922650;-70
2021/07/31 02:12:38;;;;;;;;;;;;;;;22.76;68.42;100113.55;463491;112;923611;-71
2021/07/31 02:13:44;;;;;;;;;;;;;;;22.76;68.45;100119.11;457984;114;922680;-70
2021/07/31 02:14:49;;;;;;;;;;;;;;;22.77;68.47;100117.16;465226;112;921571;-70
2021/07/31 02:15:54;;;;;;;;;;;;;;;22.76;68.45;100121.89;466373;112;922664;-70
2021/07/31 02:17:00;;;;;;;;;;;;;;;22.76;68.48;100126.62;465786;114;921980;-70
2021/07/31 02:18:04;;;;;;;;;;;;;;;22.76;68.49;100129.41;466844;112;921679;-72
2021/07/31 02:19:08;;;;;;;;;;;;;;;22.73;68.49;100121.66;465682;112;922698;-69
2021/07/31 02:20:13;;;;;;;;;;;;;;;22.69;68.52;100129.77;461408;112;922662;-70
2021/07/31 02:21:24;;;;;;;;;;;;;;;22.67;68.59;100131.19;460480;114;921477;-71
2021/07/31 02:22:35;;;;;;;;;;;;;;;22.65;68.69;100134.30;435317;120;922939;-69
2021/07/31 02:23:57;;;;;;;;;;;;;;;22.63;68.79;100130.16;457791;114;922652;-70
2021/07/31 02:25:09;;;;;;;;;;;;;;;22.63;68.81;100135.72;464284;112;921689;-68
2021/07/31 02:26:31;;;;;;;;;;;;;;;22.62;68.84;100140.45;467573;112;922709;-72
2021/07/31 02:27:46;;;;;;;;;;;;;;;22.61;68.85;100144.34;467565;112;922701;-71
2021/07/31 02:28:51;;;;;;;;;;;;;;;22.61;68.90;100140.75;465021;112;922614;-70
2021/07/31 02:29:55;;;;;;;;;;;;;;;22.60;68.86;100141.90;462416;112;922639;-70
2021/07/31 02:30:58;;;;;;;;;;;;;;;22.57;68.90;100148.05;461947;112;922574;-70
2021/07/31 02:32:03;;;;;;;;;;;;;;;22.55;68.99;100148.34;465297;112;922692;-71
2021/07/31 02:33:07;;;;;;;;;;;;;;;22.55;69.03;100147.55;464039;112;923464;-71
2021/07/31 02:34:10;;;;;;;;;;;;;;;22.54;69.05;100135.61;451902;116;922732;-72
2021/07/31 02:35:16;;;;;;;;;;;;;;;22.55;69.02;100147.55;459688;114;922643;-72
2021/07/31 02:36:38;;;;;;;;;;;;;;;22.53;69.06;100145.06;460088;114;923022;-70
2021/07/31 02:37:45;;;;;;;;;;;;;;;22.52;69.07;100146.19;460127;114;921507;-70
2021/07/31 02:38:49;;;;;;;;;;;;;;;22.53;69.19;100145.06;460318;114;922586;-70
2021/07/31 02:39:53;;;;;;;;;;;;;;;22.53;69.19;100149.80;459805;114;921595;-71
2021/07/31 02:40:57;;;;;;;;;;;;;;;22.53;69.21;100150.62;459799;114;922572;-71
2021/07/31 02:42:01;;;;;;;;;;;;;;;22.54;69.19;100154.23;458991;114;922647;-70
2021/07/31 02:43:06;;;;;;;;;;;;;;;22.54;69.14;100154.23;450376;117;922725;-72
2021/07/31 02:44:10;;;;;;;;;;;;;;;22.53;69.15;100150.62;450407;114;921526;-72
2021/07/31 02:45:13;;;;;;;;;;;;;;;22.54;69.13;100157.01;459543;114;921479;-71
2021/07/31 02:46:17;;;;;;;;;;;;;;;22.52;69.20;100157.30;460123;114;921514;-71
2021/07/31 02:47:21;;;;;;;;;;;;;;;22.53;69.21;100161.73;459364;113;921406;-70
2021/07/31 02:48:24;;;;;;;;;;;;;;;22.53;69.24;100156.18;458201;114;921639;-70
2021/07/31 02:49:28;;;;;;;;;;;;;;;22.53;69.27;100158.13;457762;114;921532;-70
2021/07/31 02:50:33;;;;;;;;;;;;;;;22.53;69.29;100161.73;454770;115;921802;-71
2021/07/31 02:51:48;;;;;;;;;;;;;;;22.53;69.32;100153.40;425525;123;921730;-70
2021/07/31 02:52:56;;;;;;;;;;;;;;;22.54;69.36;100159.78;426625;123;921685;-70
2021/07/31 02:54:01;;;;;;;;;;;;;;;22.54;69.36;100168.12;451935;114;921747;-70
2021/07/31 02:55:06;;;;;;;;;;;;;;;22.55;69.40;100169.78;460975;114;921494;-70
2021/07/31 02:56:10;;;;;;;;;;;;;;;22.55;69.47;100169.78;460826;114;921560;-70
2021/07/31 02:57:14;;;;;;;;;;;;;;;22.56;69.47;100174.18;460919;114;922016;-70
2021/07/31 02:58:18;;;;;;;;;;;;;;;22.58;69.45;100172.77;447322;117;921550;-70
2021/07/31 02:59:22;;;;;;;;;;;;;;;22.60;69.42;100178.85;447994;114;923169;-70
2021/07/31 03:00:27;;;;;;;;;;;;;;;22.61;69.38;100172.14;460041;114;922637;-70
2021/07/31 03:01:34;;;;;;;;;;;;;;;22.63;69.26;100177.41;459872;114;922663;-70
2021/07/31 03:02:38;;;;;;;;;;;;;;;22.65;69.17;100169.59;460198;111;922771;-70
2021/07/31 03:03:42;;;;;;;;;;;;;;;22.66;69.11;100171.25;460008;114;921577;-70
2021/07/31 03:04:46;;;;;;;;;;;;;;;22.67;69.06;100170.92;459815;114;921523;-71
2021/07/31 03:05:54;;;;;;;;;;;;;;;22.69;69.04;100181.75;448257;117;921530;-71
2021/07/31 03:07:00;;;;;;;;;;;;;;;22.70;68.96;100181.45;457679;114;921382;-71
2021/07/31 03:08:03;;;;;;;;;;;;;;;22.70;68.90;100181.45;456976;115;921486;-71
2021/07/31 03:09:07;;;;;;;;;;;;;;;22.72;68.91;100186.71;456827;114;923087;-71
2021/07/31 03:10:12;;;;;;;;;;;;;;;22.73;68.88;100177.25;451478;116;922628;-70
2021/07/31 03:11:17;;;;;;;;;;;;;;;22.73;68.86;100178.08;458928;114;922696;-68
2021/07/31 03:12:21;;;;;;;;;;;;;;;22.76;68.80;100179.44;458807;114;922786;-70
2021/07/31 03:13:25;;;;;;;;;;;;;;;22.78;68.74;100171.59;458448;114;922756;-70
2021/07/31 03:14:28;;;;;;;;;;;;;;;22.79;68.76;100176.86;458341;114;922740;-70
2021/07/31 03:15:32;;;;;;;;;;;;;;;22.81;68.69;100168.22;457617;114;922985;-70
2021/07/31 03:16:36;;;;;;;;;;;;;;;22.84;68.64;100170.38;459500;114;922675;-70
2021/07/31 03:17:40;;;;;;;;;;;;;;;22.85;68.63;100178.42;461122;114;922648;-71
2021/07/31 03:18:44;;;;;;;;;;;;;;;22.90;68.56;100176.67;459301;114;922668;-70
2021/07/31 03:19:49;;;;;;;;;;;;;;;22.93;68.53;100170.52;446271;117;922664;-70
2021/07/31 03:20:55;;;;;;;;;;;;;;;22.95;68.41;100168.23;450200;114;923182;-70
2021/07/31 03:22:04;;;;;;;;;;;;;;;22.97;68.36;100175.15;459228;114;922731;-70
2021/07/31 03:23:09;;;;;;;;;;;;;;;22.99;68.27;100178.42;459768;114;923725;-69
2021/07/31 03:24:13;;;;;;;;;;;;;;;23.00;68.23;100176.47;461211;114;922631;-70
2021/07/31 03:25:16;;;;;;;;;;;;;;;23.00;68.18;100180.08;460867;114;921484;-70
2021/07/31 03:26:20;;;;;;;;;;;;;;;23.03;68.15;100178.66;461693;114;921539;-69
2021/07/31 03:27:24;;;;;;;;;;;;;;;23.04;68.13;100178.36;460384;114;922674;-70
2021/07/31 03:28:46;;;;;;;;;;;;;;;23.07;68.16;100179.69;460610;114;922683;-71
2021/07/31 03:29:50;;;;;;;;;;;;;;;23.09;68.09;100191.34;461287;114;923057;-70
2021/07/31 03:30:54;;;;;;;;;;;;;;;23.12;68.10;100180.41;459748;114;922676;-70
2021/07/31 03:31:59;;;;;;;;;;;;;;;23.15;68.05;100181.77;459993;114;922636;-70
2021/07/31 03:33:03;;;;;;;;;;;;;;;23.19;67.97;100180.02;458537;115;922749;-70
2021/07/31 03:34:06;;;;;;;;;;;;;;;23.22;67.89;100177.42;457550;115;921635;-70
2021/07/31 03:35:10;;;;;;;;;;;;;;;23.26;67.80;100183.22;457416;115;921530;-70
2021/07/31 03:36:28;;;;;;;;;;;;;;;23.29;67.78;100185.37;439079;119;922782;-70
2021/07/31 03:37:39;;;;;;;;;;;;;;;23.32;67.72;100186.72;447863;115;921592;-70
2021/07/31 03:38:43;;;;;;;;;;;;;;;23.35;67.68;100189.70;457211;115;921447;-70
2021/07/31 03:39:46;;;;;;;;;;;;;;;23.38;67.60;100191.84;456651;115;921491;-70
2021/07/31 03:40:52;;;;;;;;;;;;;;;23.41;67.50;100193.20;458895;115;921433;-70
2021/07/31 03:41:57;;;;;;;;;;;;;;;23.43;67.42;100188.17;459536;115;921412;-70
2021/07/31 03:43:00;;;;;;;;;;;;;;;23.45;67.41;100185.87;446647;117;921531;-70
2021/07/31 03:44:04;;;;;;;;;;;;;;;23.46;67.36;100179.22;445901;115;921515;-70
2021/07/31 03:45:09;;;;;;;;;;;;;;;23.48;67.32;100185.31;458816;115;921442;-70
2021/07/31 03:46:12;;;;;;;;;;;;;;;23.47;67.31;100178.09;458427;115;921564;-70
2021/07/31 03:47:16;;;;;;;;;;;;;;;23.48;67.34;100185.31;449060;117;921533;-70
2021/07/31 03:48:19;;;;;;;;;;;;;;;23.49;67.33;100187.76;448933;115;921517;-70
2021/07/31 03:49:23;;;;;;;;;;;;;;;23.51;67.37;100187.45;457483;115;921538;-70
2021/07/31 03:50:26;;;;;;;;;;;;;;;23.55;67.40;100186.52;457909;115;921452;-71
2021/07/31 03:51:31;;;;;;;;;;;;;;;23.58;67.29;100183.13;456570;115;921524;-70
2021/07/31 03:52:35;;;;;;;;;;;;;;;23.61;67.19;100185.28;457558;115;921556;-70
2021/07/31 03:53:38;;;;;;;;;;;;;;;23.64;67.11;100186.63;457188;115;921503;-71
2021/07/31 03:54:41;;;;;;;;;;;;;;;23.67;67.08;100184.04;457029;115;922601;-70
2021/07/31 03:55:46;;;;;;;;;;;;;;;23.69;67.01;100183.73;456317;115;923144;-70
2021/07/31 03:56:50;;;;;;;;;;;;;;;23.71;67.00;100186.22;456635;115;923115;-70
2021/07/31 03:57:58;;;;;;;;;;;;;;;23.72;67.03;100180.31;455981;115;923043;-70
2021/07/31 03:59:02;;;;;;;;;;;;;;;23.75;67.00;100188.06;462022;114;923244;-70
2021/07/31 04:00:07;;;;;;;;;;;;;;;23.80;66.93;100187.13;461204;113;922724;-70
2021/07/31 04:01:12;;;;;;;;;;;;;;;23.82;66.85;100185.66;455055;115;923016;-69
2021/07/31 04:02:16;;;;;;;;;;;;;;;23.87;66.69;100187.53;462035;113;924882;-70
2021/07/31 04:03:21;;;;;;;;;;;;;;;23.92;66.61;100187.41;465226;113;923149;-70
2021/07/31 04:04:27;;;;;;;;;;;;;;;23.96;66.46;100182.86;457777;114;921866;-69
2021/07/31 04:05:30;;;;;;;;;;;;;;;23.99;66.38;100182.22;458197;114;921751;-70
2021/07/31 04:06:53;;;;;;;;;;;;;;;24.01;66.37;100186.34;464789;113;922651;-70
2021/07/31 04:08:15;;;;;;;;;;;;;;;24.04;66.34;100185.70;463455;112;922709;-69
2021/07/31 04:09:37;;;;;;;;;;;;;;;24.09;66.27;100187.58;463951;114;922701;-70
2021/07/31 04:11:00;;;;;;;;;;;;;;;24.11;66.19;100186.11;464481;113;922690;-69
2021/07/31 04:12:08;;;;;;;;;;;;;;;24.17;66.09;100188.77;440586;117;922794;-70
2021/07/31 04:13:32;;;;;;;;;;;;;;;24.22;66.01;100192.30;428163;122;921833;-70
2021/07/31 04:14:37;;;;;;;;;;;;;;;24.24;65.88;100187.25;435692;120;922765;-72
2021/07/31 04:15:42;;;;;;;;;;;;;;;24.27;65.83;100186.59;437508;120;923205;-69
2021/07/31 04:16:47;;;;;;;;;;;;;;;24.28;65.81;100181.86;437474;120;922776;-70
2021/07/31 04:17:50;;;;;;;;;;;;;;;24.30;65.82;100188.77;436864;120;922758;-70
2021/07/31 04:18:54;;;;;;;;;;;;;;;24.32;65.83;100183.69;436821;120;922796;-69
2021/07/31 04:19:58;;;;;;;;;;;;;;;24.33;65.78;100187.30;447170;117;923651;-69
2021/07/31 04:21:06;;;;;;;;;;;;;;;24.33;65.74;100190.91;460304;112;921618;-70
2021/07/31 04:22:10;;;;;;;;;;;;;;;24.32;65.80;100186.47;459233;113;922674;-70
2021/07/31 04:23:15;;;;;;;;;;;;;;;24.31;65.87;100190.42;461349;113;922618;-69
2021/07/31 04:24:20;;;;;;;;;;;;;;;24.31;65.96;100195.17;459661;113;921642;-71
2021/07/31 04:25:24;;;;;;;;;;;;;;;24.30;66.01;100188.77;463558;113;923172;-70
2021/07/31 04:26:28;;;;;;;;;;;;;;;24.31;66.07;100195.17;466184;113;922686;-68
2021/07/31 04:27:32;;;;;;;;;;;;;;;24.32;66.00;100192.05;464968;113;921654;-70
2021/07/31 04:28:36;;;;;;;;;;;;;;;24.32;65.99;100189.27;464095;113;922623;-70
2021/07/31 04:29:40;;;;;;;;;;;;;;;24.35;66.08;100198.97;465299;113;922656;-70
2021/07/31 04:30:44;;;;;;;;;;;;;;;24.35;66.15;100197.00;465189;114;923146;-71
2021/07/31 04:31:48;;;;;;;;;;;;;;;24.37;66.24;100191.09;465110;112;921474;-70
2021/07/31 04:32:51;;;;;;;;;;;;;;;24.39;66.20;100189.66;465072;113;921522;-71
2021/07/31 04:33:55;;;;;;;;;;;;;;;24.40;66.19;100196.87;462723;113;921466;-71
2021/07/31 04:34:58;;;;;;;;;;;;;;;24.40;66.19;100187.69;458335;115;921678;-70
2021/07/31 04:36:02;;;;;;;;;;;;;;;24.42;66.15;100188.21;458780;115;921583;-71
2021/07/31 04:37:06;;;;;;;;;;;;;;;24.41;66.16;100183.77;458339;115;921540;-70
2021/07/31 04:38:09;;;;;;;;;;;;;;;24.40;66.19;100180.16;457711;115;921476;-70
2021/07/31 04:39:12;;;;;;;;;;;;;;;24.39;66.26;100180.47;457910;115;921557;-70
2021/07/31 04:40:15;;;;;;;;;;;;;;;24.37;66.29;100194.70;457191;115;921490;-70
2021/07/31 04:41:18;;;;;;;;;;;;;;;24.36;66.35;100183.90;457444;115;921605;-71
2021/07/31 04:42:22;;;;;;;;;;;;;;;24.36;66.32;100184.73;457157;115;921436;-71
2021/07/31 04:43:25;;;;;;;;;;;;;;;24.37;66.34;100188.31;456735;111;921476;-69
2021/07/31 04:44:28;;;;;;;;;;;;;;;24.37;66.37;100189.14;455787;115;922644;-70
2021/07/31 04:45:32;;;;;;;;;;;;;;;24.38;66.38;100188.00;454783;115;922739;-70
2021/07/31 04:46:36;;;;;;;;;;;;;;;24.40;66.41;100196.87;456155;115;922671;-70
2021/07/31 04:47:40;;;;;;;;;;;;;;;24.41;66.43;100184.60;458359;115;922664;-69
2021/07/31 04:48:44;;;;;;;;;;;;;;;24.44;66.38;100189.53;458220;115;923669;-71
2021/07/31 04:49:48;;;;;;;;;;;;;;;24.45;66.40;100181.99;457484;114;922726;-70
2021/07/31 04:50:58;;;;;;;;;;;;;;;24.46;66.43;100184.47;457507;114;922664;-70
2021/07/31 04:52:02;;;;;;;;;;;;;;;24.47;66.36;100185.30;458023;115;921550;-69
2021/07/31 04:53:05;;;;;;;;;;;;;;;24.48;66.26;100190.53;457104;115;922683;-70
2021/07/31 04:54:09;;;;;;;;;;;;;;;24.48;66.39;100196.11;457694;115;921647;-70
2021/07/31 04:55:12;;;;;;;;;;;;;;;24.48;66.40;100190.53;458310;115;922775;-71
2021/07/31 04:56:16;;;;;;;;;;;;;;;24.47;66.45;100190.88;458367;115;923023;-69
2021/07/31 04:57:20;;;;;;;;;;;;;;;24.45;66.48;100191.18;457902;115;921516;-71
2021/07/31 04:58:24;;;;;;;;;;;;;;;24.44;66.53;100189.53;456980;115;922656;-69
2021/07/31 04:59:27;;;;;;;;;;;;;;;24.44;66.54;100181.16;456710;115;923573;-71
2021/07/31 05:00:31;;;;;;;;;;;;;;;24.43;66.59;100190.66;457418;115;922611;-70
2021/07/31 05:01:34;;;;;;;;;;;;;;;24.44;66.72;100188.70;456418;115;922676;-70
2021/07/31 05:02:38;;;;;;;;;;;;;;;24.45;66.75;100198.72;457467;115;921491;-71
2021/07/31 05:03:42;;;;;;;;;;;;;;;24.46;66.78;100190.05;456936;112;921567;-70
2021/07/31 05:04:45;;;;;;;;;;;;;;;24.47;66.70;100186.13;456482;115;923100;-70
2021/07/31 05:05:48;;;;;;;;;;;;;;;24.49;66.77;100199.72;456057;115;923884;-70
2021/07/31 05:06:53;;;;;;;;;;;;;;;24.50;66.70;100198.59;455888;115;922710;-70
2021/07/31 05:07:57;;;;;;;;;;;;;;;24.51;66.73;100194.66;456195;115;922685;-70
2021/07/31 05:09:03;;;;;;;;;;;;;;;24.53;66.67;100194.36;459071;115;922761;-70
2021/07/31 05:10:07;;;;;;;;;;;;;;;24.53;66.67;100191.57;456665;114;923154;-70
2021/07/31 05:11:10;;;;;;;;;;;;;;;24.53;66.64;100195.19;457350;115;922641;-70
2021/07/31 05:12:14;;;;;;;;;;;;;;;24.55;66.75;100200.42;458269;115;922660;-71
2021/07/31 05:13:18;;;;;;;;;;;;;;;24.55;66.83;100192.87;458028;115;922706;-69
2021/07/31 05:14:21;;;;;;;;;;;;;;;24.57;66.73;100196.19;458058;115;923667;-70
2021/07/31 05:15:25;;;;;;;;;;;;;;;24.59;66.66;100201.45;458414;115;922733;-69
2021/07/31 05:16:29;;;;;;;;;;;;;;;24.60;66.72;100192.75;457831;115;922624;-69
2021/07/31 05:17:34;;;;;;;;;;;;;;;24.62;66.62;100195.23;456962;115;923618;-70
2021/07/31 05:18:38;;;;;;;;;;;;;;;24.63;66.28;100194.09;458032;115;921600;-70
2021/07/31 05:19:41;;;;;;;;;;;;;;;24.64;66.21;100204.11;457259;115;922761;-70
2021/07/31 05:20:45;;;;;;;;;;;;;;;24.64;66.21;100199.36;458035;115;921456;-70
2021/07/31 05:21:49;;;;;;;;;;;;;;;24.65;66.21;100191.80;457653;115;921604;-72
2021/07/31 05:22:53;;;;;;;;;;;;;;;24.67;66.29;100200.67;457416;115;921498;-69
2021/07/31 05:23:56;;;;;;;;;;;;;;;24.69;66.30;100199.23;457167;115;921519;-70
2021/07/31 05:25:00;;;;;;;;;;;;;;;24.71;66.19;100199.72;457684;115;921433;-70
2021/07/31 05:26:03;;;;;;;;;;;;;;;24.72;66.19;100198.58;456890;115;921479;-71
2021/07/31 05:27:06;;;;;;;;;;;;;;;24.74;66.10;100209.42;456905;115;921468;-70
2021/07/31 05:28:10;;;;;;;;;;;;;;;24.75;66.03;100206.33;456990;115;921386;-70
2021/07/31 05:29:13;;;;;;;;;;;;;;;24.76;66.08;100209.91;456878;112;921927;-71
2021/07/31 05:30:17;;;;;;;;;;;;;;;24.77;66.03;100214.35;455483;115;922582;-70